Hlavní strana
METAR-TAF:

METAR-TAF

Letiště :

Tiaret, Alžírsko

zeměpisná šířka: 35-15N, zeměpisná délka: 001-26E, výška: 1127 m

Aktuální stav počasí

Zpráva byla vytvořena před 47 minutami, v 13:00 UTC
Východoseverovýchodní vítr 20 kt
Teplota 13°C
Vlhkost vzduchu 51%
Tlak 1019 hPa
Viditelnost: 6000 m
Polojasno ve výšce 3000 ft
Polojasno ve výšce 9000 ft

METAR: DAOB 011300Z 07020KT 6000 SCT030 SCT090 13/03 Q1019

Čas: 14:47 (13:47 UTC)

Předpověď počasí

Zpráva byla vytvořena před 2 hodinami a 47 minutami, v 11:00 UTC
Předpověď platná od 01 v 12 UTC do 02 v 12 UTC
Východní vítr 20 kt
Viditelnost: 8000 m
Polojasno ve výšce 3000 ft
Polojasno ve výšce 8000 ft
Pravděpodobnost 40% :
Dočasný
od 01 v 12 UTC do 01 v 16 UTC
Východní vítr 20 kt s nárazy do 30 kt
Viditelnost: 4000 m
Skoro jasno ve výšce 2600 ft, Vertikální cumulus.
nízko zvířený písek

TAF: DAOB 011100Z 0112/0212 08020KT 8000 SCT030 SCT080 PROB40 TEMPO 0112/0116 10020G30KT 4000 DRSA FEW026TCU

Stav a předpovědi počasí z více než 4 000 letišť (zprávy METAR a TAF).

Červené a žluté tečky na mapě představují dostupné meteorologické stanice.

Když kurzor umístíte na tečku, zobrazí se název stanice.

Pak kliknutím zobrazíte stav a předpověď počasí.

Chcete-li změnit mapu, kliknutím na zelené tlačítko se znaménkem +mapu přiblížíte, kliknutím na zelené tlačítko se znaménkem – mapu oddálíte a kliknutím na zelené šipky přejdete na sousední mapy.


METAR-TAF: